sensor_id;sensor_type;location;lat;lon;timestamp;pressure;altitude;pressure_sealevel;temperature;humidity
41636;BME280;27623;51.966;4.602;2023-01-28T00:01:12;63768.41;;;5.65;84.45
41636;BME280;27623;51.966;4.602;2023-01-28T00:03:38;63750.16;;;5.65;83.96
41636;BME280;27623;51.966;4.602;2023-01-28T00:06:07;63769.66;;;5.55;83.13
41636;BME280;27623;51.966;4.602;2023-01-28T00:08:33;63750.88;;;5.53;83.84
41636;BME280;27623;51.966;4.602;2023-01-28T00:10:59;63748.91;;;5.54;83.08
41636;BME280;27623;51.966;4.602;2023-01-28T00:13:25;63725.06;;;5.46;81.96
41636;BME280;27623;51.966;4.602;2023-01-28T00:15:54;63751.06;;;5.56;82.43
41636;BME280;27623;51.966;4.602;2023-01-28T00:18:20;63804.69;;;5.64;81.36
41636;BME280;27623;51.966;4.602;2023-01-28T00:21:19;63738.81;;;5.54;82.22
41636;BME280;27623;51.966;4.602;2023-01-28T00:23:53;63752.50;;;5.62;82.84
41636;BME280;27623;51.966;4.602;2023-01-28T00:26:19;63777.44;;;5.64;81.95
41636;BME280;27623;51.966;4.602;2023-01-28T00:28:45;63755.97;;;5.61;82.13
41636;BME280;27623;51.966;4.602;2023-01-28T00:31:16;63752.34;;;5.52;82.89
41636;BME280;27623;51.966;4.602;2023-01-28T00:33:43;63770.22;;;5.83;81.49
41636;BME280;27623;51.966;4.602;2023-01-28T00:36:10;63788.28;;;5.74;81.35
41636;BME280;27623;51.966;4.602;2023-01-28T00:38:36;63765.91;;;5.86;81.35
41636;BME280;27623;51.966;4.602;2023-01-28T00:41:15;63776.00;;;5.79;82.00
41636;BME280;27623;51.966;4.602;2023-01-28T00:43:41;63763.19;;;5.70;82.68
41636;BME280;27623;51.966;4.602;2023-01-28T00:46:08;63781.97;;;5.78;83.41
41636;BME280;27623;51.966;4.602;2023-01-28T00:48:38;63784.13;;;5.73;82.61
41636;BME280;27623;51.966;4.602;2023-01-28T00:51:05;63750.53;;;5.56;83.76
41636;BME280;27623;51.966;4.602;2023-01-28T00:53:31;63782.66;;;5.67;83.77
41636;BME280;27623;51.966;4.602;2023-01-28T00:55:57;63735.34;;;5.48;82.76
41636;BME280;27623;51.966;4.602;2023-01-28T00:58:22;63749.28;;;5.59;83.72
41636;BME280;27623;51.966;4.602;2023-01-28T01:00:51;63750.34;;;5.67;81.78
41636;BME280;27623;51.966;4.602;2023-01-28T01:03:17;63731.03;;;5.59;82.28
41636;BME280;27623;51.966;4.602;2023-01-28T01:05:43;63755.59;;;5.63;81.65
41636;BME280;27623;51.966;4.602;2023-01-28T01:08:09;63813.34;;;5.65;81.87
41636;BME280;27623;51.966;4.602;2023-01-28T01:10:36;63751.78;;;5.52;81.73
41636;BME280;27623;51.966;4.602;2023-01-28T01:13:02;63779.78;;;5.62;81.60
41636;BME280;27623;51.966;4.602;2023-01-28T01:15:27;63744.03;;;5.57;81.73
41636;BME280;27623;51.966;4.602;2023-01-28T01:17:53;63775.09;;;5.67;81.84
41636;BME280;27623;51.966;4.602;2023-01-28T01:20:21;63749.44;;;5.47;82.35
41636;BME280;27623;51.966;4.602;2023-01-28T01:23:07;63753.59;;;5.56;80.15
41636;BME280;27623;51.966;4.602;2023-01-28T01:25:33;63750.34;;;5.46;81.80
41636;BME280;27623;51.966;4.602;2023-01-28T01:27:58;63742.22;;;5.45;82.39
41636;BME280;27623;51.966;4.602;2023-01-28T01:30:24;63756.84;;;5.52;82.21
41636;BME280;27623;51.966;4.602;2023-01-28T01:32:50;63759.00;;;5.54;82.26
41636;BME280;27623;51.966;4.602;2023-01-28T01:35:16;63770.22;;;5.69;80.82
41636;BME280;27623;51.966;4.602;2023-01-28T01:37:42;63755.59;;;5.56;81.78
41636;BME280;27623;51.966;4.602;2023-01-28T01:40:10;63739.16;;;5.59;80.75
41636;BME280;27623;51.966;4.602;2023-01-28T01:42:36;63773.66;;;5.61;80.16
41636;BME280;27623;51.966;4.602;2023-01-28T01:45:11;63753.78;;;5.87;78.77
41636;BME280;27623;51.966;4.602;2023-01-28T01:47:40;63781.25;;;5.75;79.48
41636;BME280;27623;51.966;4.602;2023-01-28T01:52:39;63736.81;;;5.55;80.63
41636;BME280;27623;51.966;4.602;2023-01-28T01:55:09;63792.03;;;5.64;80.35
41636;BME280;27623;51.966;4.602;2023-01-28T01:57:37;63768.94;;;5.66;80.76
41636;BME280;27623;51.966;4.602;2023-01-28T02:00:06;63757.56;;;5.55;81.92
41636;BME280;27623;51.966;4.602;2023-01-28T02:02:38;63779.06;;;5.66;81.14
41636;BME280;27623;51.966;4.602;2023-01-28T02:05:06;63775.81;;;5.70;79.82
41636;BME280;27623;51.966;4.602;2023-01-28T02:07:33;63802.00;;;5.75;80.05
41636;BME280;27623;51.966;4.602;2023-01-28T02:09:58;63786.28;;;5.75;80.14
41636;BME280;27623;51.966;4.602;2023-01-28T02:12:30;63762.25;;;5.64;80.34
41636;BME280;27623;51.966;4.602;2023-01-28T02:15:02;63701.63;;;5.36;81.93
41636;BME280;27623;51.966;4.602;2023-01-28T02:17:30;63733.03;;;5.58;81.95
41636;BME280;27623;51.966;4.602;2023-01-28T02:20:02;63733.03;;;5.51;82.83
41636;BME280;27623;51.966;4.602;2023-01-28T02:22:46;63796.56;;;5.56;83.05
41636;BME280;27623;51.966;4.602;2023-01-28T02:36:50;63769.66;;;5.62;82.51
41636;BME280;27623;51.966;4.602;2023-01-28T02:39:31;63768.41;;;5.65;82.08
41636;BME280;27623;51.966;4.602;2023-01-28T02:42:07;63743.47;;;5.49;83.29
41636;BME280;27623;51.966;4.602;2023-01-28T02:44:33;63729.22;;;5.40;83.81
41636;BME280;27623;51.966;4.602;2023-01-28T02:46:59;63745.09;;;5.43;82.84
41636;BME280;27623;51.966;4.602;2023-01-28T02:49:49;63748.16;;;5.37;84.08
41636;BME280;27623;51.966;4.602;2023-01-28T02:55:34;63762.78;;;5.43;84.15
41636;BME280;27623;51.966;4.602;2023-01-28T02:58:05;63729.94;;;5.36;84.66
41636;BME280;27623;51.966;4.602;2023-01-28T03:00:37;63707.38;;;5.25;85.33
41636;BME280;27623;51.966;4.602;2023-01-28T03:06:12;63725.78;;;5.35;85.92
41636;BME280;27623;51.966;4.602;2023-01-28T03:08:45;63763.88;;;5.37;85.09
41636;BME280;27623;51.966;4.602;2023-01-28T03:11:35;63718.38;;;5.30;86.08
41636;BME280;27623;51.966;4.602;2023-01-28T03:14:23;63715.13;;;5.20;86.08
41636;BME280;27623;51.966;4.602;2023-01-28T03:17:14;63738.06;;;5.37;86.35
41636;BME280;27623;51.966;4.602;2023-01-28T03:19:59;63710.09;;;5.41;85.06
41636;BME280;27623;51.966;4.602;2023-01-28T03:22:45;63744.91;;;5.41;85.11
41636;BME280;27623;51.966;4.602;2023-01-28T03:25:33;63716.22;;;5.49;84.32
41636;BME280;27623;51.966;4.602;2023-01-28T03:28:19;63719.84;;;5.36;85.44
41636;BME280;27623;51.966;4.602;2023-01-28T03:31:16;63762.44;;;5.38;84.40
41636;BME280;27623;51.966;4.602;2023-01-28T03:34:02;63756.66;;;5.57;83.80
41636;BME280;27623;51.966;4.602;2023-01-28T03:36:48;63770.19;;;5.62;83.49
41636;BME280;27623;51.966;4.602;2023-01-28T03:39:20;63741.69;;;5.38;83.65
41636;BME280;27623;51.966;4.602;2023-01-28T03:42:03;63774.34;;;5.49;83.65
41636;BME280;27623;51.966;4.602;2023-01-28T03:44:30;63754.66;;;5.50;83.05
41636;BME280;27623;51.966;4.602;2023-01-28T03:47:14;63767.66;;;5.41;83.37
41636;BME280;27623;51.966;4.602;2023-01-28T03:49:45;63751.59;;;5.49;81.84
41636;BME280;27623;51.966;4.602;2023-01-28T03:52:14;63743.47;;;5.35;82.36
41636;BME280;27623;51.966;4.602;2023-01-28T03:54:40;63702.50;;;5.34;81.77
41636;BME280;27623;51.966;4.602;2023-01-28T03:57:06;63770.00;;;5.45;81.01
41636;BME280;27623;51.966;4.602;2023-01-28T03:59:32;63718.91;;;5.24;82.38
41636;BME280;27623;51.966;4.602;2023-01-28T04:01:58;63728.28;;;5.28;82.02
41636;BME280;27623;51.966;4.602;2023-01-28T04:04:24;63736.41;;;5.28;82.64
41636;BME280;27623;51.966;4.602;2023-01-28T04:06:53;63743.81;;;5.26;81.90
41636;BME280;27623;51.966;4.602;2023-01-28T04:09:20;63709.91;;;5.32;80.56
41636;BME280;27623;51.966;4.602;2023-01-28T04:11:46;63735.34;;;5.34;80.19
41636;BME280;27623;51.966;4.602;2023-01-28T04:14:12;63757.00;;;5.33;81.49
41636;BME280;27623;51.966;4.602;2023-01-28T04:16:39;63708.66;;;5.35;79.79
41636;BME280;27623;51.966;4.602;2023-01-28T04:19:05;63660.47;;;5.18;80.96
41636;BME280;27623;51.966;4.602;2023-01-28T04:21:31;63672.00;;;5.17;81.95
41636;BME280;27623;51.966;4.602;2023-01-28T04:23:57;63699.81;;;5.39;80.99
41636;BME280;27623;51.966;4.602;2023-01-28T04:26:22;63733.00;;;5.30;81.14
41636;BME280;27623;51.966;4.602;2023-01-28T04:28:49;63707.53;;;5.20;81.77
41636;BME280;27623;51.966;4.602;2023-01-28T04:31:14;63732.09;;;5.31;81.87
41636;BME280;27623;51.966;4.602;2023-01-28T04:33:40;63741.50;;;5.35;81.72
41636;BME280;27623;51.966;4.602;2023-01-28T04:36:07;63752.69;;;5.36;80.14
41636;BME280;27623;51.966;4.602;2023-01-28T04:38:33;63738.41;;;5.35;80.44
41636;BME280;27623;51.966;4.602;2023-01-28T04:40:59;63685.00;;;5.23;80.62
41636;BME280;27623;51.966;4.602;2023-01-28T04:43:25;63726.16;;;5.40;80.47
41636;BME280;27623;51.966;4.602;2023-01-28T04:45:51;63744.00;;;5.42;79.95
41636;BME280;27623;51.966;4.602;2023-01-28T04:48:16;63709.19;;;5.29;80.96
41636;BME280;27623;51.966;4.602;2023-01-28T04:50:42;63760.78;;;5.44;80.22
41636;BME280;27623;51.966;4.602;2023-01-28T04:53:08;63717.84;;;5.37;80.47
41636;BME280;27623;51.966;4.602;2023-01-28T04:55:34;63735.53;;;5.37;79.52
41636;BME280;27623;51.966;4.602;2023-01-28T04:58:00;63724.72;;;5.48;79.09
41636;BME280;27623;51.966;4.602;2023-01-28T05:00:26;63732.13;;;5.38;79.41
41636;BME280;27623;51.966;4.602;2023-01-28T05:02:52;63743.63;;;5.30;80.12
41636;BME280;27623;51.966;4.602;2023-01-28T05:05:18;63731.00;;;5.30;80.78
41636;BME280;27623;51.966;4.602;2023-01-28T05:07:46;63741.09;;;5.23;81.04
41636;BME280;27623;51.966;4.602;2023-01-28T05:10:14;63713.31;;;5.23;80.53
41636;BME280;27623;51.966;4.602;2023-01-28T05:12:43;63726.84;;;5.14;80.88
41636;BME280;27623;51.966;4.602;2023-01-28T05:15:10;63702.13;;;5.15;79.38
41636;BME280;27623;51.966;4.602;2023-01-28T05:17:35;63730.25;;;5.13;78.65
41636;BME280;27623;51.966;4.602;2023-01-28T05:20:01;63700.34;;;5.18;78.86
41636;BME280;27623;51.966;4.602;2023-01-28T05:22:26;63711.34;;;5.16;79.93
41636;BME280;27623;51.966;4.602;2023-01-28T05:24:51;63740.19;;;5.25;79.48
41636;BME280;27623;51.966;4.602;2023-01-28T05:27:18;63736.03;;;5.23;77.89
41636;BME280;27623;51.966;4.602;2023-01-28T05:29:44;63730.63;;;5.18;79.12
41636;BME280;27623;51.966;4.602;2023-01-28T05:32:10;63719.44;;;5.17;78.57
41636;BME280;27623;51.966;4.602;2023-01-28T05:34:37;63704.66;;;5.15;78.42
41636;BME280;27623;51.966;4.602;2023-01-28T05:37:02;63723.78;;;5.21;79.29
41636;BME280;27623;51.966;4.602;2023-01-28T05:39:28;63732.44;;;5.29;78.12
41636;BME280;27623;51.966;4.602;2023-01-28T05:41:53;63712.97;;;5.18;78.28
41636;BME280;27623;51.966;4.602;2023-01-28T05:44:19;63695.63;;;5.16;78.97
41636;BME280;27623;51.966;4.602;2023-01-28T05:46:46;63743.78;;;5.11;78.27
41636;BME280;27623;51.966;4.602;2023-01-28T05:49:12;63732.81;;;5.41;77.46
41636;BME280;27623;51.966;4.602;2023-01-28T05:51:40;63749.25;;;5.38;76.50
41636;BME280;27623;51.966;4.602;2023-01-28T05:54:06;63758.97;;;5.26;77.20
41636;BME280;27623;51.966;4.602;2023-01-28T05:56:32;63689.84;;;5.06;78.19
41636;BME280;27623;51.966;4.602;2023-01-28T05:58:59;63718.53;;;5.11;79.44
41636;BME280;27623;51.966;4.602;2023-01-28T06:01:25;63709.38;;;5.31;78.81
41636;BME280;27623;51.966;4.602;2023-01-28T06:03:51;63732.66;;;5.39;77.72
41636;BME280;27623;51.966;4.602;2023-01-28T06:06:16;63697.41;;;5.06;79.21
41636;BME280;27623;51.966;4.602;2023-01-28T06:08:45;63690.22;;;5.04;79.24
41636;BME280;27623;51.966;4.602;2023-01-28T06:11:10;63671.28;;;5.07;79.49
41636;BME280;27623;51.966;4.602;2023-01-28T06:13:36;63699.56;;;4.94;80.01
41636;BME280;27623;51.966;4.602;2023-01-28T06:16:04;63695.44;;;5.06;80.12
41636;BME280;27623;51.966;4.602;2023-01-28T06:18:29;63734.25;;;5.26;79.24
41636;BME280;27623;51.966;4.602;2023-01-28T06:20:56;63692.38;;;5.20;80.28
41636;BME280;27623;51.966;4.602;2023-01-28T06:23:21;63703.38;;;5.04;80.50
41636;BME280;27623;51.966;4.602;2023-01-28T06:25:47;63723.41;;;5.16;80.10
41636;BME280;27623;51.966;4.602;2023-01-28T06:28:12;63718.38;;;5.23;79.28
41636;BME280;27623;51.966;4.602;2023-01-28T06:30:38;63705.72;;;5.09;78.80
41636;BME280;27623;51.966;4.602;2023-01-28T06:33:03;63728.13;;;5.18;79.03
41636;BME280;27623;51.966;4.602;2023-01-28T06:35:29;63760.03;;;5.20;78.69
41636;BME280;27623;51.966;4.602;2023-01-28T06:37:55;63703.22;;;5.16;79.44
41636;BME280;27623;51.966;4.602;2023-01-28T06:40:21;63708.44;;;5.11;78.13
41636;BME280;27623;51.966;4.602;2023-01-28T06:42:49;63687.88;;;5.21;78.01
41636;BME280;27623;51.966;4.602;2023-01-28T06:45:15;63668.75;;;5.29;78.25
41636;BME280;27623;51.966;4.602;2023-01-28T06:47:40;63694.34;;;5.05;78.31
41636;BME280;27623;51.966;4.602;2023-01-28T06:50:06;63686.06;;;5.09;78.57
41636;BME280;27623;51.966;4.602;2023-01-28T06:52:33;63731.03;;;5.44;76.61
41636;BME280;27623;51.966;4.602;2023-01-28T06:54:58;63721.44;;;5.31;77.35
41636;BME280;27623;51.966;4.602;2023-01-28T06:57:23;63637.38;;;5.06;78.77
41636;BME280;27623;51.966;4.602;2023-01-28T06:59:49;63708.97;;;5.05;78.87
41636;BME280;27623;51.966;4.602;2023-01-28T07:02:15;63706.09;;;5.14;78.62
41636;BME280;27623;51.966;4.602;2023-01-28T07:04:40;63697.28;;;5.17;78.99
41636;BME280;27623;51.966;4.602;2023-01-28T07:07:05;63704.47;;;5.12;80.02
41636;BME280;27623;51.966;4.602;2023-01-28T07:09:31;63652.50;;;4.92;79.53
41636;BME280;27623;51.966;4.602;2023-01-28T07:11:56;63665.31;;;4.88;79.80
41636;BME280;27623;51.966;4.602;2023-01-28T07:14:22;63694.19;;;5.17;79.19
41636;BME280;27623;51.966;4.602;2023-01-28T07:16:48;63684.63;;;5.10;80.54
41636;BME280;27623;51.966;4.602;2023-01-28T07:19:14;63660.25;;;5.02;81.28
41636;BME280;27623;51.966;4.602;2023-01-28T07:21:40;63711.31;;;5.02;80.42
41636;BME280;27623;51.966;4.602;2023-01-28T07:24:06;63697.44;;;4.99;81.08
41636;BME280;27623;51.966;4.602;2023-01-28T07:26:32;63669.13;;;4.98;80.80
41636;BME280;27623;51.966;4.602;2023-01-28T07:28:57;63621.28;;;4.58;81.02
41636;BME280;27623;51.966;4.602;2023-01-28T07:31:23;63678.09;;;4.76;81.38
41636;BME280;27623;51.966;4.602;2023-01-28T07:33:48;63636.28;;;4.91;80.80
41636;BME280;27623;51.966;4.602;2023-01-28T07:36:14;63713.13;;;5.06;79.77
41636;BME280;27623;51.966;4.602;2023-01-28T07:38:40;63713.50;;;5.11;78.66
41636;BME280;27623;51.966;4.602;2023-01-28T07:41:05;63708.25;;;5.09;77.61
41636;BME280;27623;51.966;4.602;2023-01-28T07:43:31;63706.47;;;5.12;77.54
41636;BME280;27623;51.966;4.602;2023-01-28T07:45:59;63666.94;;;4.89;77.56
41636;BME280;27623;51.966;4.602;2023-01-28T07:48:26;63692.34;;;4.84;78.05
41636;BME280;27623;51.966;4.602;2023-01-28T07:50:52;63696.34;;;5.05;77.66
41636;BME280;27623;51.966;4.602;2023-01-28T07:53:18;63675.41;;;4.95;78.19
41636;BME280;27623;51.966;4.602;2023-01-28T07:55:44;63669.63;;;4.84;78.43
41636;BME280;27623;51.966;4.602;2023-01-28T07:58:10;63626.72;;;4.92;78.78
41636;BME280;27623;51.966;4.602;2023-01-28T08:00:37;63676.13;;;5.05;77.87
41636;BME280;27623;51.966;4.602;2023-01-28T08:03:05;63655.94;;;4.76;78.20
41636;BME280;27623;51.966;4.602;2023-01-28T08:05:43;63651.75;;;4.61;79.61
41636;BME280;27623;51.966;4.602;2023-01-28T08:08:09;63666.72;;;4.79;79.22
41636;BME280;27623;51.966;4.602;2023-01-28T08:10:36;63688.53;;;4.74;78.39
41636;BME280;27623;51.966;4.602;2023-01-28T08:13:02;63636.63;;;4.75;78.43
41636;BME280;27623;51.966;4.602;2023-01-28T08:15:28;63676.66;;;4.84;79.51
41636;BME280;27623;51.966;4.602;2023-01-28T08:17:54;63657.19;;;5.01;78.74
41636;BME280;27623;51.966;4.602;2023-01-28T08:20:21;63700.31;;;5.11;77.76
41636;BME280;27623;51.966;4.602;2023-01-28T08:22:47;63684.97;;;4.87;78.39
41636;BME280;27623;51.966;4.602;2023-01-28T08:25:12;63683.53;;;4.95;79.21
41636;BME280;27623;51.966;4.602;2023-01-28T08:27:38;63703.91;;;5.05;78.34
41636;BME280;27623;51.966;4.602;2023-01-28T08:30:04;63692.19;;;5.03;78.75
41636;BME280;27623;51.966;4.602;2023-01-28T08:32:30;63695.06;;;5.01;78.38
41636;BME280;27623;51.966;4.602;2023-01-28T08:34:56;63699.22;;;4.96;78.41
41636;BME280;27623;51.966;4.602;2023-01-28T08:37:22;63655.59;;;4.93;78.28
41636;BME280;27623;51.966;4.602;2023-01-28T08:39:50;63694.16;;;5.03;78.72
41636;BME280;27623;51.966;4.602;2023-01-28T08:42:16;63686.41;;;5.00;78.76
41636;BME280;27623;51.966;4.602;2023-01-28T08:44:41;63694.00;;;4.93;78.71
41636;BME280;27623;51.966;4.602;2023-01-28T08:47:06;63668.22;;;5.07;78.27
41636;BME280;27623;51.966;4.602;2023-01-28T08:49:32;63720.34;;;5.08;78.46
41636;BME280;27623;51.966;4.602;2023-01-28T08:51:57;63701.59;;;5.14;78.01
41636;BME280;27623;51.966;4.602;2023-01-28T08:54:23;63672.53;;;4.90;78.06
41636;BME280;27623;51.966;4.602;2023-01-28T08:56:48;63666.75;;;4.87;77.35
41636;BME280;27623;51.966;4.602;2023-01-28T08:59:16;63707.31;;;4.89;77.81
41636;BME280;27623;51.966;4.602;2023-01-28T09:01:41;63672.69;;;4.85;78.40
41636;BME280;27623;51.966;4.602;2023-01-28T09:04:07;63659.88;;;4.68;78.13
41636;BME280;27623;51.966;4.602;2023-01-28T09:06:32;63682.06;;;4.82;78.89
41636;BME280;27623;51.966;4.602;2023-01-28T09:08:59;63711.13;;;4.93;78.15
41636;BME280;27623;51.966;4.602;2023-01-28T09:11:25;63695.41;;;4.99;78.08
41636;BME280;27623;51.966;4.602;2023-01-28T09:13:51;63692.53;;;4.94;77.25
41636;BME280;27623;51.966;4.602;2023-01-28T09:16:17;63671.25;;;4.93;77.44
41636;BME280;27623;51.966;4.602;2023-01-28T09:18:42;63738.94;;;5.21;77.93
41636;BME280;27623;51.966;4.602;2023-01-28T09:21:08;63706.63;;;5.07;75.96
41636;BME280;27623;51.966;4.602;2023-01-28T09:23:37;63712.63;;;5.34;77.13
41636;BME280;27623;51.966;4.602;2023-01-28T09:26:03;63752.66;;;5.43;75.26
41636;BME280;27623;51.966;4.602;2023-01-28T09:28:30;63734.28;;;5.69;74.07
41636;BME280;27623;51.966;4.602;2023-01-28T09:31:09;63744.38;;;5.47;74.64
41636;BME280;27623;51.966;4.602;2023-01-28T09:33:36;63742.75;;;5.46;74.51
41636;BME280;27623;51.966;4.602;2023-01-28T09:36:04;63736.63;;;5.38;75.79
41636;BME280;27623;51.966;4.602;2023-01-28T09:38:30;63769.28;;;5.42;74.76
41636;BME280;27623;51.966;4.602;2023-01-28T09:40:55;63735.75;;;5.61;74.75
41636;BME280;27623;51.966;4.602;2023-01-28T09:43:47;63766.41;;;5.51;74.95
41636;BME280;27623;51.966;4.602;2023-01-28T09:46:18;63742.59;;;5.65;74.97
41636;BME280;27623;51.966;4.602;2023-01-28T09:48:48;63773.47;;;5.79;74.14
41636;BME280;27623;51.966;4.602;2023-01-28T09:51:30;63740.97;;;5.49;75.14
41636;BME280;27623;51.966;4.602;2023-01-28T09:54:01;63739.88;;;5.55;74.94
41636;BME280;27623;51.966;4.602;2023-01-28T09:56:38;63783.19;;;5.46;73.56
41636;BME280;27623;51.966;4.602;2023-01-28T09:59:17;63750.38;;;5.74;73.10
41636;BME280;27623;51.966;4.602;2023-01-28T10:01:53;63751.25;;;5.73;72.32
41636;BME280;27623;51.966;4.602;2023-01-28T10:05:11;63778.88;;;5.70;74.12
41636;BME280;27623;51.966;4.602;2023-01-28T10:10:19;63802.06;;;6.11;72.27
41636;BME280;27623;51.966;4.602;2023-01-28T10:13:16;63818.88;;;6.19;70.50
41636;BME280;27623;51.966;4.602;2023-01-28T10:18:13;63866.75;;;6.45;69.40
41636;BME280;27623;51.966;4.602;2023-01-28T10:20:53;63882.88;;;6.79;68.20
41636;BME280;27623;51.966;4.602;2023-01-28T10:26:36;63917.06;;;6.97;66.26
41636;BME280;27623;51.966;4.602;2023-01-28T10:29:16;63886.47;;;6.87;69.08
41636;BME280;27623;51.966;4.602;2023-01-28T10:31:50;63939.50;;;7.35;66.37
41636;BME280;27623;51.966;4.602;2023-01-28T10:34:16;63980.59;;;7.56;64.84
41636;BME280;27623;51.966;4.602;2023-01-28T10:36:42;63989.09;;;7.69;64.49
41636;BME280;27623;51.966;4.602;2023-01-28T10:39:12;63997.78;;;7.70;63.18
41636;BME280;27623;51.966;4.602;2023-01-28T10:41:38;64024.06;;;7.83;62.66
41636;BME280;27623;51.966;4.602;2023-01-28T10:44:04;63985.84;;;7.59;64.07
41636;BME280;27623;51.966;4.602;2023-01-28T10:46:32;64008.50;;;7.85;63.08
41636;BME280;27623;51.966;4.602;2023-01-28T10:51:36;64010.31;;;7.89;63.70
41636;BME280;27623;51.966;4.602;2023-01-28T10:54:03;64042.19;;;8.02;63.36
41636;BME280;27623;51.966;4.602;2023-01-28T10:56:42;64054.50;;;8.33;62.51
41636;BME280;27623;51.966;4.602;2023-01-28T11:01:59;64001.41;;;8.00;61.73
41636;BME280;27623;51.966;4.602;2023-01-28T11:04:34;64033.66;;;8.04;62.07
41636;BME280;27623;51.966;4.602;2023-01-28T11:07:01;64046.88;;;8.33;60.43
41636;BME280;27623;51.966;4.602;2023-01-28T11:09:35;64024.94;;;8.31;61.57
41636;BME280;27623;51.966;4.602;2023-01-28T11:12:12;64101.63;;;8.74;59.54
41636;BME280;27623;51.966;4.602;2023-01-28T11:14:48;64101.25;;;8.83;58.98
41636;BME280;27623;51.966;4.602;2023-01-28T11:17:16;64133.19;;;8.96;59.12
41636;BME280;27623;51.966;4.602;2023-01-28T11:19:43;64144.59;;;9.21;58.69
41636;BME280;27623;51.966;4.602;2023-01-28T11:24:57;64106.16;;;8.74;60.53
41636;BME280;27623;51.966;4.602;2023-01-28T11:27:28;64113.75;;;8.95;59.40
41636;BME280;27623;51.966;4.602;2023-01-28T11:29:59;64110.50;;;8.99;59.46
41636;BME280;27623;51.966;4.602;2023-01-28T11:32:29;64162.94;;;9.22;59.25
41636;BME280;27623;51.966;4.602;2023-01-28T11:34:55;64191.41;;;9.51;57.49
41636;BME280;27623;51.966;4.602;2023-01-28T11:37:27;64223.88;;;9.86;56.43
41636;BME280;27623;51.966;4.602;2023-01-28T11:40:08;64224.25;;;9.77;56.44
41636;BME280;27623;51.966;4.602;2023-01-28T11:42:38;64263.50;;;9.92;56.99
41636;BME280;27623;51.966;4.602;2023-01-28T11:45:11;64278.38;;;10.15;55.43
41636;BME280;27623;51.966;4.602;2023-01-28T11:52:57;64278.53;;;10.39;53.89
41636;BME280;27623;51.966;4.602;2023-01-28T11:55:46;64306.31;;;10.58;53.80
41636;BME280;27623;51.966;4.602;2023-01-28T12:01:09;64347.91;;;10.99;51.70
41636;BME280;27623;51.966;4.602;2023-01-28T12:09:29;64356.06;;;11.07;51.81
41636;BME280;27623;51.966;4.602;2023-01-28T12:12:15;64365.72;;;11.13;51.15
41636;BME280;27623;51.966;4.602;2023-01-28T12:17:37;64371.25;;;11.49;51.24
41636;BME280;27623;51.966;4.602;2023-01-28T12:20:29;64435.72;;;11.66;49.86
41636;BME280;27623;51.966;4.602;2023-01-28T12:26:18;64376.44;;;11.21;51.63
41636;BME280;27623;51.966;4.602;2023-01-28T12:31:50;64491.63;;;11.99;49.18
41636;BME280;27623;51.966;4.602;2023-01-28T12:35:39;64468.03;;;12.20;48.41
41636;BME280;27623;51.966;4.602;2023-01-28T12:37:39;64509.75;;;12.33;48.06
41636;BME280;27623;51.966;4.602;2023-01-28T12:47:48;64570.34;;;12.96;46.75
41636;BME280;27623;51.966;4.602;2023-01-28T12:50:37;64626.56;;;13.18;45.80
41636;BME280;27623;51.966;4.602;2023-01-28T12:56:02;64574.63;;;13.15;45.54
41636;BME280;27623;51.966;4.602;2023-01-28T12:59:01;64660.97;;;13.57;45.40
41636;BME280;27623;51.966;4.602;2023-01-28T13:01:39;64642.63;;;13.66;45.56
41636;BME280;27623;51.966;4.602;2023-01-28T13:04:12;64666.41;;;13.69;44.49
41636;BME280;27623;51.966;4.602;2023-01-28T13:06:51;64648.97;;;13.76;43.78
41636;BME280;27623;51.966;4.602;2023-01-28T13:09:22;64610.03;;;13.31;44.55
41636;BME280;27623;51.966;4.602;2023-01-28T13:11:51;64630.94;;;13.22;45.67
41636;BME280;27623;51.966;4.602;2023-01-28T13:14:27;64626.19;;;13.13;45.93
41636;BME280;27623;51.966;4.602;2023-01-28T13:16:53;64616.31;;;13.11;44.54
41636;BME280;27623;51.966;4.602;2023-01-28T13:19:23;64637.75;;;13.54;44.06
41636;BME280;27623;51.966;4.602;2023-01-28T13:21:49;64657.81;;;13.63;44.45
41636;BME280;27623;51.966;4.602;2023-01-28T13:31:40;64632.63;;;13.54;43.95
41636;BME280;27623;51.966;4.602;2023-01-28T13:34:07;64644.59;;;13.34;44.45
41636;BME280;27623;51.966;4.602;2023-01-28T13:36:47;64651.41;;;13.67;42.86
41636;BME280;27623;51.966;4.602;2023-01-28T13:41:44;64723.31;;;14.07;42.38
41636;BME280;27623;51.966;4.602;2023-01-28T13:44:29;64643.75;;;13.98;42.81
41636;BME280;27623;51.966;4.602;2023-01-28T13:46:58;64758.91;;;14.33;42.86
41636;BME280;27623;51.966;4.602;2023-01-28T13:49:39;64724.63;;;14.42;42.22
41636;BME280;27623;51.966;4.602;2023-01-28T13:54:42;64673.91;;;14.04;41.94
41636;BME280;27623;51.966;4.602;2023-01-28T13:57:37;64687.81;;;14.05;42.32
41636;BME280;27623;51.966;4.602;2023-01-28T14:05:54;64722.16;;;14.21;41.45
41636;BME280;27623;51.966;4.602;2023-01-28T14:11:35;64768.03;;;14.47;41.31
41636;BME280;27623;51.966;4.602;2023-01-28T14:20:36;64860.81;;;15.44;40.59
41636;BME280;27623;51.966;4.602;2023-01-28T14:23:05;64858.25;;;15.44;39.99
41636;BME280;27623;51.966;4.602;2023-01-28T14:31:32;64885.81;;;15.72;39.81
41636;BME280;27623;51.966;4.602;2023-01-28T14:36:29;64897.28;;;15.52;40.28
41636;BME280;27623;51.966;4.602;2023-01-28T14:38:55;64906.06;;;15.60;39.98
41636;BME280;27623;51.966;4.602;2023-01-28T14:41:25;64850.34;;;15.49;40.79
41636;BME280;27623;51.966;4.602;2023-01-28T14:43:53;64859.88;;;15.46;40.75
41636;BME280;27623;51.966;4.602;2023-01-28T14:51:39;64839.78;;;15.37;40.88
41636;BME280;27623;51.966;4.602;2023-01-28T14:57:16;64848.47;;;15.21;42.00
41636;BME280;27623;51.966;4.602;2023-01-28T14:59:52;64832.59;;;15.06;41.48
41636;BME280;27623;51.966;4.602;2023-01-28T15:02:23;64796.31;;;15.01;43.45
41636;BME280;27623;51.966;4.602;2023-01-28T15:04:50;64748.19;;;14.57;40.72
41636;BME280;27623;51.966;4.602;2023-01-28T15:07:22;64768.22;;;14.42;40.59
41636;BME280;27623;51.966;4.602;2023-01-28T15:10:02;64732.16;;;13.94;42.26
41636;BME280;27623;51.966;4.602;2023-01-28T15:12:32;64639.06;;;13.51;44.32
41636;BME280;27623;51.966;4.602;2023-01-28T15:15:10;64561.69;;;13.12;45.83
41636;BME280;27623;51.966;4.602;2023-01-28T15:17:36;64561.09;;;12.81;46.83
41636;BME280;27623;51.966;4.602;2023-01-28T15:20:06;64510.25;;;12.48;47.28